Time;durP1;ratioP1;P1;durP2;ratioP2;P2;SDS_P1;SDS_P2;PMS_P1;PMS_P2;Temp;Humidity;BMP_temperature;BMP_pressure;BME280_temperature;BME280_humidity;BME280_pressure;Samples;Min_cycle;Max_cycle;Signal;HPM_P1;HPM_P2
2022/05/04 00:00:03;;;;;;;15.93;8.85;;;14.40;99.90;;;;;;5081141;27;20053;-80
2022/05/04 00:03:01;;;;;;;14.35;7.72;;;14.20;99.90;;;;;;5086708;28;20055;-79
2022/05/04 00:08:24;;;;;;;16.65;7.22;;;14.30;99.90;;;;;;5050135;28;20745;-80
2022/05/04 00:10:55;;;;;;;15.93;7.38;;;14.30;99.90;;;;;;5044273;28;20182;-80
2022/05/04 00:13:37;;;;;;;14.27;8.18;;;14.20;99.90;;;;;;5049489;28;20067;-80
2022/05/04 00:16:19;;;;;;;20.30;8.90;;;13.90;99.90;;;;;;5045992;28;20047;-80
2022/05/04 00:18:53;;;;;;;16.98;9.27;;;14.30;99.90;;;;;;5047422;28;20483;-79
2022/05/04 00:21:25;;;;;;;17.83;9.35;;;14.20;99.90;;;;;;5043521;28;20046;-80
2022/05/04 00:24:00;;;;;;;;;;;14.20;99.90;;;;;;5044582;28;20113;-80
2022/05/04 00:26:39;;;;;;;19.40;7.05;;;14.20;99.90;;;;;;5042486;28;19921;-80
2022/05/04 00:29:34;;;;;;;17.20;7.93;;;14.20;99.90;;;;;;5040549;28;20064;-80
2022/05/04 00:32:05;;;;;;;16.33;8.30;;;14.20;99.90;;;;;;5044436;28;20559;-79
2022/05/04 00:34:49;;;;;;;15.93;8.32;;;14.40;99.90;;;;;;5046707;28;20933;-79
2022/05/04 00:37:32;;;;;;;15.50;8.48;;;13.80;99.90;;;;;;5049334;28;20184;-80
2022/05/04 00:40:14;;;;;;;17.10;8.57;;;14.20;99.90;;;;;;5045693;28;20049;-79
2022/05/04 00:42:43;;;;;;;23.88;7.72;;;14.10;99.90;;;;;;5045143;28;20171;-79
2022/05/04 00:45:10;;;;;;;16.88;8.93;;;14.20;99.90;;;;;;5047855;28;20049;-79
2022/05/04 00:47:44;;;;;;;19.00;8.32;;;14.10;99.90;;;;;;5062892;28;20041;-79
2022/05/04 00:50:16;;;;;;;20.55;9.48;;;14.10;99.90;;;;;;5066286;28;20044;-80
2022/05/04 00:52:54;;;;;;;20.92;8.90;;;14.10;99.90;;;;;;5065271;28;20636;-80
2022/05/04 00:55:32;;;;;;;15.77;8.93;;;14.10;99.90;;;;;;5065884;28;20263;-79
2022/05/04 01:01:26;;;;;;;18.08;9.13;;;14.10;99.90;;;;;;5064988;28;20087;-79
2022/05/04 01:04:18;;;;;;;17.13;7.97;;;14.10;99.90;;;;;;5079341;28;20047;-79
2022/05/04 01:06:48;;;;;;;17.80;9.07;;;14.10;99.90;;;;;;5064129;28;20269;-79
2022/05/04 01:09:17;;;;;;;20.15;9.43;;;13.70;99.90;;;;;;5077983;27;20043;-80
2022/05/04 01:11:51;;;;;;;18.77;8.27;;;14.00;99.90;;;;;;5065276;28;20040;-79
2022/05/04 01:14:29;;;;;;;16.20;9.05;;;14.00;99.90;;;;;;5063487;28;20055;-80
2022/05/04 01:16:55;;;;;;;16.30;9.55;;;14.00;99.90;;;;;;5064222;28;20048;-79
2022/05/04 01:19:39;;;;;;;14.30;8.25;;;13.80;99.90;;;;;;5059973;28;20068;-79
2022/05/04 01:22:17;;;;;;;22.33;11.07;;;14.00;99.90;;;;;;5062149;28;20048;-79
2022/05/04 01:24:54;;;;;;;15.95;7.97;;;14.00;99.90;;;;;;5064523;28;20125;-79
2022/05/04 01:27:34;;;;;;;18.88;8.88;;;13.20;99.90;;;;;;5064772;28;20785;-79
2022/05/04 01:30:26;;;;;;;18.05;10.05;;;13.30;99.90;;;;;;5067190;28;20055;-80
2022/05/04 01:33:10;;;;;;;15.88;8.90;;;13.90;99.90;;;;;;5063720;28;20044;-80
2022/05/04 01:35:42;;;;;;;16.48;8.18;;;13.80;99.90;;;;;;5061919;28;20566;-79
2022/05/04 01:38:11;;;;;;;15.88;8.30;;;13.80;99.90;;;;;;5063812;28;20048;-80
2022/05/04 01:40:49;;;;;;;20.13;7.53;;;15.30;99.90;;;;;;5061174;28;20522;-81
2022/05/04 01:43:47;;;;;;;16.38;8.13;;;13.80;99.90;;;;;;5061506;28;20059;-78
2022/05/04 01:46:31;;;;;;;19.48;10.55;;;13.80;99.90;;;;;;5062820;28;20045;-80
2022/05/04 01:49:13;;;;;;;15.18;7.40;;;13.60;99.90;;;;;;5062071;28;20057;-80
2022/05/04 01:51:50;;;;;;;22.33;9.18;;;14.10;99.90;;;;;;5061093;28;20618;-79
2022/05/04 01:54:26;;;;;;;22.48;8.68;;;13.70;99.90;;;;;;5060645;28;20514;-79
2022/05/04 01:57:11;;;;;;;18.55;9.02;;;13.70;99.90;;;;;;5079939;27;20078;-80
2022/05/04 02:00:00;;;;;;;21.75;9.15;;;13.70;99.90;;;;;;5061295;28;21379;-80
2022/05/04 02:02:32;;;;;;;17.58;8.57;;;13.80;99.90;;;;;;5062773;28;20044;-80
2022/05/04 02:05:05;;;;;;;25.25;10.48;;;13.70;99.90;;;;;;5065190;28;20044;-80
2022/05/04 02:07:46;;;;;;;21.40;9.18;;;13.70;99.90;;;;;;5063384;28;20167;-80
2022/05/04 02:10:30;;;;;;;17.60;9.80;;;13.70;99.90;;;;;;5064449;28;20253;-80
2022/05/04 02:13:14;;;;;;;15.90;7.88;;;13.70;99.90;;;;;;5077817;27;20159;-80
2022/05/04 02:18:42;;;;;;;16.60;8.10;;;13.30;99.90;;;;;;5082824;27;20600;-80
2022/05/04 02:21:12;;;;;;;18.33;8.38;;;13.60;99.90;;;;;;5080002;27;20102;-80
2022/05/04 02:23:48;;;;;;;17.60;8.50;;;13.70;99.90;;;;;;5064670;28;20051;-80
2022/05/04 02:29:26;;;;;;;19.60;8.45;;;13.70;99.90;;;;;;5062434;28;20057;-80
2022/05/04 02:32:04;;;;;;;18.80;8.40;;;14.20;99.90;;;;;;5059673;28;20053;-80
2022/05/04 02:38:10;;;;;;;18.83;8.35;;;13.50;99.90;;;;;;5061992;28;20036;-80
2022/05/04 02:40:38;;;;;;;15.98;8.82;;;13.50;99.90;;;;;;5060969;28;20708;-80
2022/05/04 02:43:49;;;;;;;;;;;;;;;;;;;;;
2022/05/04 02:46:37;;;;;;;16.73;8.02;;;13.60;99.90;;;;;;5059788;28;44338;-81
2022/05/04 02:49:20;;;;;;;16.45;8.27;;;13.60;99.90;;;;;;5068552;28;20036;-81
2022/05/04 02:51:54;;;;;;;17.73;9.30;;;13.50;99.90;;;;;;5062427;28;20139;-81
2022/05/04 02:54:29;;;;;;;15.70;8.88;;;13.50;99.90;;;;;;5061856;28;20053;-81
2022/05/04 02:57:23;;;;;;;21.00;9.00;;;13.70;99.90;;;;;;5076393;28;20095;-79
2022/05/04 03:00:21;;;;;;;17.77;7.88;;;13.50;99.90;;;;;;5077742;28;20515;-80
2022/05/04 03:02:57;;;;;;;14.93;8.30;;;13.00;99.90;;;;;;5057531;28;20132;-81
2022/05/04 03:05:32;;;;;;;14.95;7.93;;;13.50;99.90;;;;;;5060257;28;20056;-80
2022/05/04 03:08:05;;;;;;;12.60;7.50;;;13.50;99.90;;;;;;5059779;28;20458;-80
2022/05/04 03:11:54;;;;;;;15.27;7.03;;;13.50;99.90;;;;;;5060652;28;20045;-80
2022/05/04 03:13:29;;;;;;;18.40;8.82;;;13.60;99.90;;;;;;5060314;28;20064;-80
2022/05/04 03:18:54;;;;;;;19.10;9.52;;;13.60;99.90;;;;;;5053450;28;20049;-80
2022/05/04 03:21:57;;;;;;;19.23;9.07;;;13.60;99.90;;;;;;5061620;28;20194;-80
2022/05/04 03:24:36;;;;;;;15.13;7.43;;;13.60;99.90;;;;;;5059328;28;20132;-80
2022/05/04 03:27:05;;;;;;;18.48;8.52;;;13.30;99.90;;;;;;5077991;28;20063;-80
2022/05/04 03:29:44;;;;;;;17.30;9.02;;;13.50;99.90;;;;;;5058847;28;20099;-80
2022/05/04 03:35:30;;;;;;;;;;;;;;;;;;;;;
2022/05/04 03:38:08;;;;;;;18.15;10.02;;;13.40;99.90;;;;;;5061664;28;41286;-80
2022/05/04 03:40:57;;;;;;;17.40;8.23;;;13.50;99.90;;;;;;5069319;28;20056;-80
2022/05/04 03:43:34;;;;;;;19.33;9.68;;;13.40;99.90;;;;;;5062622;28;20315;-80
2022/05/04 03:46:40;;;;;;;17.55;8.48;;;12.60;99.90;;;;;;5061581;28;20044;-80
2022/05/04 03:52:14;;;;;;;19.65;9.60;;;14.10;99.90;;;;;;5061593;28;20045;-80
2022/05/04 03:54:57;;;;;;;20.75;9.60;;;13.50;99.90;;;;;;5062041;28;20070;-80
2022/05/04 03:57:42;;;;;;;16.88;8.38;;;13.40;99.90;;;;;;5059969;28;20923;-80
2022/05/04 04:00:21;;;;;;;19.42;8.57;;;12.70;99.90;;;;;;5059528;28;20044;-80
2022/05/04 04:02:50;;;;;;;22.65;9.05;;;13.50;99.90;;;;;;5061808;28;20127;-80
2022/05/04 04:05:23;;;;;;;23.65;10.10;;;13.40;99.90;;;;;;5059974;28;20041;-80
2022/05/04 04:08:00;;;;;;;21.83;10.30;;;13.30;99.90;;;;;;5062895;28;20091;-80
2022/05/04 04:10:46;;;;;;;20.77;9.05;;;13.60;99.90;;;;;;5073283;28;20049;-80
2022/05/04 04:13:27;;;;;;;19.83;9.48;;;13.40;99.90;;;;;;5063733;28;20568;-80
2022/05/04 04:16:05;;;;;;;16.75;8.15;;;13.30;99.90;;;;;;5065633;28;20041;-80
2022/05/04 04:18:53;;;;;;;22.65;8.55;;;12.90;99.90;;;;;;5071392;28;20051;-80
2022/05/04 04:24:18;;;;;;;17.75;8.60;;;13.20;99.90;;;;;;5066302;28;20159;-80
2022/05/04 04:26:53;;;;;;;22.40;10.25;;;13.40;99.90;;;;;;5064204;28;20383;-79
2022/05/04 04:29:22;;;;;;;23.17;10.45;;;13.20;99.90;;;;;;5061988;28;20048;-79
2022/05/04 04:31:58;;;;;;;20.35;10.15;;;13.10;99.90;;;;;;5061735;28;20061;-79
2022/05/04 04:34:29;;;;;;;17.58;7.72;;;12.90;99.90;;;;;;5061751;28;20577;-79
2022/05/04 04:37:05;;;;;;;20.35;9.27;;;12.80;99.90;;;;;;5061776;28;20037;-79
2022/05/04 04:39:36;;;;;;;23.30;10.38;;;13.00;99.90;;;;;;5061312;28;20913;-79
2022/05/04 04:45:04;;;;;;;19.67;8.88;;;13.10;99.90;;;;;;5063460;28;20056;-78
2022/05/04 04:47:57;;;;;;;;;;;;;;;;;;;;;
2022/05/04 04:50:38;;;;;;;17.27;8.45;;;12.50;99.90;;;;;;5063819;28;40206;-79
2022/05/04 04:53:26;;;;;;;18.95;9.63;;;12.70;99.90;;;;;;5066788;28;20047;-79
2022/05/04 04:55:55;;;;;;;21.58;9.75;;;13.00;99.90;;;;;;5065171;28;20115;-79
2022/05/04 04:58:26;;;;;;;22.42;10.27;;;13.00;99.90;;;;;;5082564;27;20179;-79
2022/05/04 05:01:15;;;;;;;17.20;9.38;;;13.00;99.90;;;;;;5062960;28;20513;-79
2022/05/04 05:03:48;;;;;;;23.38;9.50;;;13.00;99.90;;;;;;5064819;28;20053;-78
2022/05/04 05:06:19;;;;;;;22.88;9.55;;;13.00;99.90;;;;;;5061500;28;20048;-79
2022/05/04 05:09:13;;;;;;;17.60;9.48;;;13.00;99.90;;;;;;5063854;28;20036;-79
2022/05/04 05:12:07;;;;;;;23.48;10.77;;;13.00;99.90;;;;;;5064697;28;20598;-80
2022/05/04 05:17:39;;;;;;;23.85;10.20;;;13.00;99.90;;;;;;5062544;28;20174;-84
2022/05/04 05:20:35;;;;;;;19.67;9.45;;;12.70;99.90;;;;;;5067062;28;20131;-78
2022/05/04 05:23:10;;;;;;;21.70;9.52;;;13.00;99.90;;;;;;5063105;28;20057;-77
2022/05/04 05:26:17;;;;;;;23.50;10.48;;;13.10;99.90;;;;;;5063288;28;20144;-78
2022/05/04 05:28:52;;;;;;;18.65;9.10;;;12.80;99.90;;;;;;5064343;28;20049;-78
2022/05/04 05:31:37;;;;;;;18.60;10.27;;;13.10;99.90;;;;;;5063979;28;20041;-77
2022/05/04 05:34:20;;;;;;;19.40;8.88;;;13.10;99.90;;;;;;5067897;28;20045;-78
2022/05/04 05:36:59;;;;;;;18.67;9.30;;;12.60;99.90;;;;;;5065588;28;20057;-78
2022/05/04 05:39:47;;;;;;;;;;;;;;;;;;;;;
2022/05/04 05:42:23;;;;;;;23.50;11.50;;;12.90;99.90;;;;;;5068431;28;40968;-79
2022/05/04 05:44:57;;;;;;;21.40;9.35;;;13.20;99.90;;;;;;5071495;28;20068;-85
2022/05/04 05:47:46;;;;;;;27.48;11.45;;;13.00;99.90;;;;;;5068930;28;20081;-78
2022/05/04 05:50:33;;;;;;;22.52;11.13;;;13.00;99.90;;;;;;5068401;28;20048;-80
2022/05/04 05:53:28;;;;;;;26.05;11.52;;;13.00;99.90;;;;;;5061970;28;20590;-77
2022/05/04 05:55:59;;;;;;;23.13;11.20;;;12.10;99.90;;;;;;5066319;28;20041;-77
2022/05/04 05:58:57;;;;;;;26.30;10.68;;;12.90;99.90;;;;;;5064115;28;21453;-78
2022/05/04 06:01:35;;;;;;;23.13;10.38;;;12.90;99.90;;;;;;5064375;28;20118;-77
2022/05/04 06:04:10;;;;;;;21.05;10.05;;;13.60;99.90;;;;;;5064099;28;20044;-77
2022/05/04 06:06:47;;;;;;;23.67;9.88;;;12.90;99.90;;;;;;5065611;28;20051;-77
2022/05/04 06:09:21;;;;;;;19.58;9.18;;;12.90;99.90;;;;;;5065701;28;20088;-77
2022/05/04 06:12:06;;;;;;;17.65;9.07;;;13.00;99.90;;;;;;5064447;28;20045;-77
2022/05/04 06:14:46;;;;;;;20.65;10.18;;;12.90;99.90;;;;;;5063749;28;20040;-77
2022/05/04 06:17:26;;;;;;;20.65;10.70;;;13.00;99.90;;;;;;5062444;28;20051;-80
2022/05/04 06:19:55;;;;;;;20.90;9.15;;;13.00;99.90;;;;;;5061960;28;20045;-84
2022/05/04 06:22:24;;;;;;;23.05;10.63;;;13.00;99.90;;;;;;5065652;28;20164;-78
2022/05/04 06:25:15;;;;;;;20.95;10.98;;;13.20;99.90;;;;;;5078863;28;20052;-84
2022/05/04 06:27:53;;;;;;;19.98;9.45;;;13.00;99.90;;;;;;5066845;28;20043;-79
2022/05/04 06:36:09;;;;;;;19.40;8.70;;;12.90;99.90;;;;;;5064101;28;20052;-79
2022/05/04 06:38:50;;;;;;;20.10;10.02;;;12.90;99.90;;;;;;5061992;28;20131;-79
2022/05/04 06:41:18;;;;;;;22.93;10.17;;;12.80;99.90;;;;;;5061377;28;20041;-77
2022/05/04 06:46:40;;;;;;;18.75;11.15;;;12.20;99.90;;;;;;5058128;28;20049;-77
2022/05/04 06:49:12;;;;;;;22.35;9.77;;;12.80;99.90;;;;;;5062981;28;20347;-78
2022/05/04 06:51:45;;;;;;;19.48;8.57;;;12.90;99.90;;;;;;5065678;28;20116;-78
2022/05/04 06:57:12;;;;;;;22.60;10.05;;;12.80;99.90;;;;;;5065319;28;20040;-77
2022/05/04 06:59:59;;;;;;;12.52;5.82;;;12.80;99.90;;;;;;5064273;28;20538;-77
2022/05/04 07:02:39;;;;;;;19.25;8.60;;;12.90;99.90;;;;;;5065355;28;20107;-78
2022/05/04 07:05:18;;;;;;;20.02;8.70;;;12.90;99.90;;;;;;5064619;28;20045;-78
2022/05/04 07:08:13;;;;;;;18.70;9.88;;;13.00;99.90;;;;;;5073462;28;20193;-78
2022/05/04 07:10:39;;;;;;;21.02;9.57;;;13.10;99.90;;;;;;5080920;28;20033;-78
2022/05/04 07:13:11;;;;;;;16.65;8.82;;;13.10;99.90;;;;;;5063407;28;20048;-78
2022/05/04 07:18:30;;;;;;;19.67;9.63;;;13.20;99.90;;;;;;5065473;28;20045;-78
2022/05/04 07:21:02;;;;;;;18.25;9.23;;;13.20;99.90;;;;;;5063983;28;20035;-78
2022/05/04 07:23:41;;;;;;;20.25;9.88;;;13.30;99.90;;;;;;5063414;28;20049;-78
2022/05/04 07:26:18;;;;;;;20.27;9.23;;;13.50;99.90;;;;;;5065752;28;20151;-78
2022/05/04 07:28:49;;;;;;;20.13;8.52;;;13.60;99.90;;;;;;5063573;28;20138;-79
2022/05/04 07:31:26;;;;;;;21.35;9.65;;;13.20;99.90;;;;;;5064465;28;20132;-79
2022/05/04 07:34:03;;;;;;;20.70;8.88;;;13.70;99.90;;;;;;5064413;28;20065;-78
2022/05/04 07:36:33;;;;;;;25.35;11.27;;;13.80;99.90;;;;;;5063057;28;20135;-79
2022/05/04 07:39:00;;;;;;;17.90;9.65;;;13.70;99.90;;;;;;5063143;28;20055;-78
2022/05/04 07:44:20;;;;;;;17.20;10.57;;;13.80;99.90;;;;;;5065384;28;20045;-78
2022/05/04 07:46:58;;;;;;;15.88;8.05;;;13.80;99.90;;;;;;5064605;28;20079;-78
2022/05/04 07:49:32;;;;;;;20.10;8.60;;;13.80;99.90;;;;;;5065181;28;20383;-78
2022/05/04 07:52:03;;;;;;;19.33;9.57;;;13.70;99.90;;;;;;5065152;28;20124;-78
2022/05/04 07:54:35;;;;;;;16.17;9.73;;;13.70;99.90;;;;;;5063801;28;20732;-78
2022/05/04 07:57:11;;;;;;;17.35;7.75;;;13.80;99.90;;;;;;5064791;28;20037;-78
2022/05/04 08:04:16;;;;;;;20.98;10.73;;;13.80;99.90;;;;;;5064384;28;20112;-78
2022/05/04 08:05:38;;;;;;;16.30;9.35;;;13.80;99.90;;;;;;5064489;28;20048;-78
2022/05/04 08:08:04;;;;;;;16.88;8.90;;;13.70;99.90;;;;;;5062550;28;20045;-78
2022/05/04 08:10:40;;;;;;;20.83;10.32;;;13.20;99.90;;;;;;5063906;28;20123;-78
2022/05/04 08:13:14;;;;;;;21.05;9.98;;;13.90;99.90;;;;;;5070330;28;20446;-78
2022/05/04 08:15:48;;;;;;;24.48;11.05;;;14.00;99.90;;;;;;5063092;28;20052;-78
2022/05/04 08:18:17;;;;;;;19.88;10.82;;;14.00;99.90;;;;;;5063337;28;20053;-78
2022/05/04 08:21:00;;;;;;;19.33;10.60;;;14.10;99.90;;;;;;5062612;28;20045;-78
2022/05/04 08:23:48;;;;;;;21.70;9.50;;;14.20;99.90;;;;;;5063086;28;20301;-79
2022/05/04 08:26:23;;;;;;;23.08;10.68;;;14.30;99.90;;;;;;5062602;28;20045;-79
2022/05/04 08:28:53;;;;;;;16.58;9.35;;;14.80;99.90;;;;;;5079815;28;20274;-78
2022/05/04 08:31:35;;;;;;;21.20;10.38;;;14.30;99.90;;;;;;5061653;28;20055;-78
2022/05/04 08:34:06;;;;;;;19.35;10.85;;;14.30;99.90;;;;;;5060228;28;20589;-78
2022/05/04 08:36:38;;;;;;;18.50;9.65;;;14.40;99.90;;;;;;5079462;28;20049;-78
2022/05/04 08:39:12;;;;;;;19.65;11.48;;;14.60;99.90;;;;;;5063193;28;20357;-78
2022/05/04 08:41:48;;;;;;;21.77;9.82;;;14.40;99.90;;;;;;5064704;28;20069;-78
2022/05/04 08:44:17;;;;;;;21.48;11.00;;;14.40;99.90;;;;;;5062652;28;20547;-78
2022/05/04 08:47:23;;;;;;;22.70;10.45;;;14.50;99.90;;;;;;5063546;28;20052;-79
2022/05/04 08:49:57;;;;;;;22.83;12.15;;;14.60;99.90;;;;;;5063203;28;22464;-78
2022/05/04 08:52:29;;;;;;;21.45;12.32;;;14.60;99.90;;;;;;5066636;28;20045;-78
2022/05/04 08:55:03;;;;;;;19.83;10.40;;;14.50;99.90;;;;;;5067086;28;20088;-78
2022/05/04 08:57:42;;;;;;;18.65;10.02;;;15.00;99.90;;;;;;5067122;28;20037;-78
2022/05/04 09:00:13;;;;;;;19.10;10.27;;;14.80;99.90;;;;;;5064919;28;20580;-79
2022/05/04 09:02:50;;;;;;;20.45;10.73;;;14.90;99.90;;;;;;5069074;28;20052;-78
2022/05/04 09:05:26;;;;;;;20.90;10.10;;;15.00;99.90;;;;;;5067835;28;20149;-78
2022/05/04 09:08:09;;;;;;;16.55;8.07;;;15.00;99.90;;;;;;5065404;28;20088;-78
2022/05/04 09:10:45;;;;;;;18.98;10.50;;;15.00;99.90;;;;;;5084005;28;20555;-78
2022/05/04 09:13:17;;;;;;;19.98;9.15;;;15.00;99.90;;;;;;5067532;28;20067;-78
2022/05/04 09:15:55;;;;;;;21.55;9.32;;;15.00;99.90;;;;;;5067650;28;20523;-78
2022/05/04 09:21:49;;;;;;;17.65;9.43;;;15.00;99.90;;;;;;5067805;28;20839;-78
2022/05/04 09:24:48;;;;;;;19.10;9.60;;;15.10;99.90;;;;;;5065354;28;20056;-78
2022/05/04 09:27:19;;;;;;;20.88;8.98;;;15.10;99.90;;;;;;5066009;28;20042;-78
2022/05/04 09:30:05;;;;;;;23.80;12.33;;;15.30;99.90;;;;;;5082087;28;20237;-78
2022/05/04 09:32:40;;;;;;;16.95;9.85;;;15.30;99.90;;;;;;5065895;28;20126;-78
2022/05/04 09:35:21;;;;;;;21.27;11.10;;;15.50;99.90;;;;;;5082270;27;20057;-78
2022/05/04 09:46:26;;;;;;;18.13;10.07;;;15.80;99.90;;;;;;5036356;28;20072;-78
2022/05/04 09:49:10;;;;;;;14.40;8.82;;;15.80;99.90;;;;;;5066397;28;20048;-78
2022/05/04 09:51:45;;;;;;;17.60;7.20;;;15.80;99.90;;;;;;5048208;28;20044;-78
2022/05/04 09:54:29;;;;;;;19.92;9.27;;;15.80;99.90;;;;;;5066675;28;20049;-78
2022/05/04 09:57:04;;;;;;;16.60;8.13;;;15.70;99.90;;;;;;5066088;28;20563;-79
2022/05/04 09:59:44;;;;;;;16.23;8.25;;;16.20;99.90;;;;;;5065377;28;20527;-78
2022/05/04 10:02:19;;;;;;;14.02;7.82;;;15.60;99.90;;;;;;5063838;28;20592;-78
2022/05/04 10:04:50;;;;;;;13.40;7.05;;;15.60;99.90;;;;;;5066098;28;20051;-78
2022/05/04 10:07:26;;;;;;;13.73;7.20;;;15.50;99.90;;;;;;5065304;28;20049;-79
2022/05/04 10:12:49;;;;;;;16.38;8.27;;;15.50;99.90;;;;;;5065758;28;20067;-78
2022/05/04 10:15:19;;;;;;;15.20;8.07;;;15.60;99.90;;;;;;5066954;28;20596;-78
2022/05/04 10:18:10;;;;;;;12.27;6.65;;;15.60;99.90;;;;;;5080831;28;20061;-78
2022/05/04 10:21:05;;;;;;;13.38;6.75;;;15.70;99.90;;;;;;5066457;28;20508;-78
2022/05/04 10:24:10;;;;;;;15.63;7.57;;;16.00;99.90;;;;;;5064648;28;20073;-78
2022/05/04 10:27:02;;;;;;;15.00;7.43;;;16.30;99.90;;;;;;5067041;28;20052;-78
2022/05/04 10:32:38;;;;;;;9.50;4.93;;;16.10;99.90;;;;;;5067642;28;20057;-79
2022/05/04 10:35:42;;;;;;;11.50;5.25;;;16.60;99.90;;;;;;5065615;28;20060;-78
2022/05/04 10:38:35;;;;;;;10.57;4.90;;;16.50;99.90;;;;;;5065208;28;20047;-79
2022/05/04 10:41:09;;;;;;;8.60;4.80;;;16.70;99.90;;;;;;5081557;27;20206;-78
2022/05/04 10:43:55;;;;;;;15.55;5.35;;;16.80;99.90;;;;;;5066475;28;20120;-78
2022/05/04 10:46:23;;;;;;;11.98;6.20;;;16.70;99.90;;;;;;5067190;28;20133;-78
2022/05/04 10:49:34;;;;;;;;;;;;;;;;;;;;;
2022/05/04 10:52:11;;;;;;;10.95;5.50;;;16.60;99.90;;;;;;5065170;28;39521;-79
2022/05/04 10:55:12;;;;;;;10.38;4.72;;;16.60;99.90;;;;;;5066427;28;20723;-78
2022/05/04 10:57:52;;;;;;;7.82;4.80;;;17.00;99.90;;;;;;5072401;28;20139;-79
2022/05/04 11:00:26;;;;;;;7.80;4.20;;;17.00;99.90;;;;;;5081180;27;20122;-79
2022/05/04 11:02:59;;;;;;;5.22;3.17;;;17.00;99.90;;;;;;5064877;28;20790;-78
2022/05/04 11:08:49;;;;;;;9.07;3.38;;;17.20;99.90;;;;;;5059954;28;20095;-78
2022/05/04 11:11:38;;;;;;;7.40;4.05;;;17.80;99.90;;;;;;5072477;28;20035;-78
2022/05/04 11:14:16;;;;;;;9.85;5.35;;;17.50;99.90;;;;;;5064640;28;20204;-78
2022/05/04 11:17:07;;;;;;;8.35;3.72;;;17.60;99.90;;;;;;5064747;28;20192;-78
2022/05/04 11:19:43;;;;;;;7.23;3.70;;;17.60;99.90;;;;;;5065452;28;20041;-78
2022/05/04 11:22:19;;;;;;;6.13;3.42;;;17.70;99.90;;;;;;5065986;28;20052;-78
2022/05/04 11:24:55;;;;;;;9.18;4.38;;;17.70;99.90;;;;;;5065864;28;20132;-78
2022/05/04 11:27:21;;;;;;;6.53;4.03;;;17.70;99.90;;;;;;5063513;28;20055;-78
2022/05/04 11:29:52;;;;;;;8.20;4.15;;;17.60;99.90;;;;;;5064059;28;20049;-78
2022/05/04 11:32:43;;;;;;;6.53;4.37;;;17.60;99.90;;;;;;5063736;28;20609;-78
2022/05/04 11:35:39;;;;;;;12.70;5.43;;;17.60;99.90;;;;;;5066278;28;20271;-78
2022/05/04 11:38:29;;;;;;;10.43;5.78;;;17.60;99.90;;;;;;5064383;28;20993;-78
2022/05/04 11:41:22;;;;;;;;;;;;;;;;;;;;;
2022/05/04 11:44:10;;;;;;;7.22;4.13;;;17.70;99.90;;;;;;5064866;28;43225;-78
2022/05/04 11:46:47;;;;;;;9.45;5.50;;;17.40;99.90;;;;;;5062590;28;20045;-78
2022/05/04 11:49:25;;;;;;;8.10;4.22;;;17.70;99.90;;;;;;5064284;28;20049;-78
2022/05/04 11:51:55;;;;;;;8.40;4.13;;;18.00;99.90;;;;;;5061168;28;20044;-78
2022/05/04 11:54:24;;;;;;;7.03;4.50;;;18.00;99.90;;;;;;5063396;28;20056;-78
2022/05/04 11:57:19;;;;;;;6.90;4.32;;;18.20;99.90;;;;;;5064651;28;20123;-78
2022/05/04 11:59:56;;;;;;;5.82;3.30;;;18.00;99.90;;;;;;5064171;28;20135;-79
2022/05/04 12:02:25;;;;;;;7.07;3.95;;;18.00;99.90;;;;;;5063472;28;20106;-78
2022/05/04 12:05:00;;;;;;;7.95;3.85;;;18.20;99.90;;;;;;5063170;28;20041;-78
2022/05/04 12:07:42;;;;;;;9.80;4.20;;;18.10;99.90;;;;;;5080838;28;20514;-78
2022/05/04 12:10:13;;;;;;;;;;;18.00;99.90;;;;;;5065274;28;20064;-78
2022/05/04 12:12:54;;;;;;;9.93;5.53;;;18.10;99.90;;;;;;5063340;28;20492;-78
2022/05/04 12:15:28;;;;;;;8.25;5.50;;;18.10;99.90;;;;;;5063153;28;20040;-78
2022/05/04 12:18:39;;;;;;;9.38;5.28;;;17.90;99.90;;;;;;5065770;28;20068;-78
2022/05/04 12:21:42;;;;;;;;;;;;;;;;;;;;;
2022/05/04 12:24:25;;;;;;;11.48;6.03;;;18.50;99.90;;;;;;5063412;28;43930;-78
2022/05/04 12:27:44;;;;;;;9.68;4.75;;;18.60;99.90;;;;;;5067043;28;20045;-78
2022/05/04 12:33:09;;;;;;;8.27;4.63;;;18.60;99.90;;;;;;5068426;28;20049;-78
2022/05/04 12:35:45;;;;;;;7.43;4.28;;;18.30;99.90;;;;;;5065633;28;20049;-78
2022/05/04 12:38:28;;;;;;;9.70;4.55;;;18.30;99.90;;;;;;5068134;28;20443;-78
2022/05/04 12:41:08;;;;;;;7.25;4.50;;;18.30;99.90;;;;;;5067184;28;20133;-78
2022/05/04 12:44:02;;;;;;;9.32;5.03;;;18.40;99.90;;;;;;5066911;28;21231;-78
2022/05/04 12:46:35;;;;;;;10.02;5.00;;;18.50;99.90;;;;;;5051467;28;20134;-78
2022/05/04 12:49:12;;;;;;;13.10;5.53;;;18.50;99.90;;;;;;5066140;28;20139;-78
2022/05/04 12:51:45;;;;;;;7.75;4.50;;;18.50;99.90;;;;;;5066003;28;20049;-78
2022/05/04 12:54:30;;;;;;;8.63;4.28;;;18.60;99.90;;;;;;5067463;28;20053;-78
2022/05/04 13:00:04;;;;;;;8.18;4.07;;;18.70;99.90;;;;;;5067615;28;20125;-75
2022/05/04 13:02:40;;;;;;;7.20;3.75;;;18.50;99.80;;;;;;5066679;28;20045;-78
2022/05/04 13:05:12;;;;;;;7.40;3.88;;;18.50;99.90;;;;;;5065567;28;20044;-78
2022/05/04 13:07:53;;;;;;;6.72;4.05;;;18.30;99.70;;;;;;5068230;28;20076;-78
2022/05/04 13:10:35;;;;;;;9.67;5.77;;;18.50;99.70;;;;;;5068747;28;20116;-77
2022/05/04 13:13:06;;;;;;;11.80;5.07;;;18.50;99.40;;;;;;5067080;28;20357;-78
2022/05/04 13:15:37;;;;;;;7.82;4.47;;;18.50;99.50;;;;;;5067396;28;20040;-78
2022/05/04 13:18:21;;;;;;;6.68;4.15;;;18.70;99.40;;;;;;5083819;27;20585;-78
2022/05/04 13:20:51;;;;;;;9.02;4.63;;;18.60;99.00;;;;;;5067576;28;20041;-78
2022/05/04 13:23:25;;;;;;;10.45;5.55;;;18.60;99.30;;;;;;5066093;28;20618;-78
2022/05/04 13:26:25;;;;;;;9.63;4.57;;;18.80;99.30;;;;;;5066522;28;20076;-77
2022/05/04 13:29:09;;;;;;;8.43;5.15;;;18.80;99.10;;;;;;5058183;28;20053;-78
2022/05/04 13:31:38;;;;;;;5.97;3.97;;;18.90;99.20;;;;;;5066865;28;20107;-78
2022/05/04 13:34:25;;;;;;;7.03;4.75;;;18.80;98.80;;;;;;5067474;28;20060;-78
2022/05/04 13:37:22;;;;;;;9.70;5.03;;;18.70;98.70;;;;;;5066559;28;20045;-78
2022/05/04 13:40:03;;;;;;;8.32;4.85;;;18.60;98.70;;;;;;5066341;28;20595;-78
2022/05/04 13:42:38;;;;;;;8.43;3.38;;;18.70;98.70;;;;;;5067551;28;20044;-78
2022/05/04 13:45:29;;;;;;;6.90;3.17;;;18.60;98.50;;;;;;5063787;28;20691;-78
2022/05/04 13:48:05;;;;;;;8.15;3.97;;;18.50;98.40;;;;;;5066322;28;20048;-77
2022/05/04 13:53:45;;;;;;;6.95;3.88;;;18.30;98.30;;;;;;5066779;28;20531;-78
2022/05/04 13:56:38;;;;;;;4.18;3.10;;;18.70;98.20;;;;;;5066271;28;20048;-78
2022/05/04 13:59:26;;;;;;;7.25;3.85;;;18.70;98.20;;;;;;5065607;28;20056;-78
2022/05/04 14:02:02;;;;;;;4.53;3.00;;;18.70;98.00;;;;;;5064928;28;20041;-79
2022/05/04 14:04:31;;;;;;;7.50;4.50;;;18.60;97.80;;;;;;5081676;28;20063;-78
2022/05/04 14:07:08;;;;;;;8.35;4.28;;;18.40;97.80;;;;;;5066438;28;20944;-79
2022/05/04 14:09:48;;;;;;;5.75;3.95;;;18.50;97.70;;;;;;5065330;28;20055;-78
2022/05/04 14:15:14;;;;;;;6.28;3.83;;;18.40;97.80;;;;;;5067200;28;20051;-79
2022/05/04 14:17:50;;;;;;;6.90;3.53;;;18.40;97.70;;;;;;5082033;27;20069;-79
2022/05/04 14:20:32;;;;;;;6.38;3.78;;;18.50;97.70;;;;;;5064193;28;20049;-79
2022/05/04 14:23:11;;;;;;;;;;;;;;;;;;;;;
2022/05/04 14:25:46;;;;;;;7.60;3.90;;;18.60;97.70;;;;;;5065117;28;42438;-79
2022/05/04 14:28:28;;;;;;;8.90;4.28;;;18.60;97.60;;;;;;5065943;28;20045;-79
2022/05/04 14:31:13;;;;;;;7.90;4.18;;;18.60;97.40;;;;;;5065824;28;20048;-79
2022/05/04 14:33:43;;;;;;;7.07;4.65;;;18.60;97.30;;;;;;5064861;28;20582;-79
2022/05/04 14:36:18;;;;;;;7.35;4.30;;;18.70;97.30;;;;;;5066780;28;20062;-79
2022/05/04 14:38:58;;;;;;;7.78;5.00;;;19.40;97.30;;;;;;5081648;28;20080;-79
2022/05/04 14:41:37;;;;;;;7.07;4.07;;;19.10;97.40;;;;;;5065181;28;20042;-79
2022/05/04 14:44:06;;;;;;;8.52;4.00;;;19.20;97.20;;;;;;5065382;28;20060;-79
2022/05/04 14:46:59;;;;;;;6.50;4.22;;;19.50;96.90;;;;;;5064462;28;20052;-79
2022/05/04 14:49:45;;;;;;;8.32;4.07;;;19.30;96.60;;;;;;5072260;28;20123;-79
2022/05/04 14:52:19;;;;;;;8.00;4.22;;;19.30;96.60;;;;;;5066079;28;20105;-78
2022/05/04 14:55:06;;;;;;;6.45;4.20;;;19.50;96.40;;;;;;5066018;28;20510;-79
2022/05/04 15:01:05;;;;;;;9.13;5.20;;;18.70;96.00;;;;;;5067436;28;20123;-78
2022/05/04 15:06:38;;;;;;;7.53;5.00;;;18.70;96.10;;;;;;5066813;28;20500;-79
2022/05/04 15:09:21;;;;;;;;;;;;;;;;;;;;;
2022/05/04 15:11:54;;;;;;;8.30;5.65;;;18.60;96.00;;;;;;5065140;28;37956;-79
2022/05/04 15:14:35;;;;;;;;;;;;;;;;;;;;;
2022/05/04 15:17:12;;;;;;;;;;;18.80;96.00;;;;;;5065796;28;44426;-79
2022/05/04 15:19:44;;;;;;;8.02;4.68;;;18.90;96.10;;;;;;5064640;28;19921;-79
2022/05/04 15:22:10;;;;;;;7.95;4.32;;;19.00;95.90;;;;;;5064484;28;20581;-79
2022/05/04 15:24:36;;;;;;;7.40;4.50;;;18.90;95.60;;;;;;5064774;28;20041;-78